Latest Weather Observations for Ivanhoe Airport

IDN60801

Issued at 10:52 pm EDT Saturday 24 February 2024 (issued every 10 minutes, with the page automatically refreshed every 10 minutes)

About weather observations | Map of weather stations | Latest weather observations for NSW | Other Formats
Station Details ID: 049000 Name: IVANHOE AERODROME AWS Lat: -32.88 Lon: 144.31 Height: 100.0 m
Data from the previous 72 hours. | See also: Recent months at Ivanhoe Airport
Date/Time
EDT
Temp
°C
App
Temp
°C
Dew
Point
°C
Rel
Hum
%
Delta-T
°C
Wind Press
QNH
hPa
Press
MSL
hPa
Rain since
9am
mm
Dir  Spd
km/h
Gust
km/h
Spd
kts
Gust
kts
24/10:30pm 20.3 17.4 4.8 36 7.6 SSW 9 11 5 6 1014.9 1014.4 0.0
24/10:00pm 20.6 17.6 4.2 34 7.9 SSW 9 9 5 5 1014.7 1014.2 0.0
24/09:30pm 21.6 19.0 4.2 32 8.5 SSW 7 9 4 5 1014.7 1014.2 0.0
24/09:00pm 22.3 19.3 3.9 30 9.0 SSW 9 11 5 6 1014.6 1014.1 0.0
24/08:30pm 24.1 21.0 3.4 26 10.1 S 9 11 5 6 1014.3 1013.8 0.0
24/08:00pm 26.2 23.1 3.5 23 11.3 S 9 13 5 7 1014.0 1013.5 0.0
24/07:30pm 27.9 23.7 3.6 21 12.2 SSE 15 20 8 11 1013.7 1013.2 0.0
24/07:00pm 28.6 24.3 3.5 20 12.7 S 15 22 8 12 1013.4 1012.9 0.0
24/06:30pm 29.7 25.3 2.9 18 13.5 S 15 30 8 16 1013.5 1013.0 0.0
24/06:00pm 29.1 24.8 3.1 19 13.1 SSE 15 24 8 13 1013.5 1013.0 0.0
24/05:30pm 28.8 24.6 3.6 20 12.8 SSE 15 22 8 12 1013.6 1013.1 0.0
24/05:00pm 29.4 25.3 4.1 20 13.0 SSE 15 20 8 11 1013.9 1013.4 0.0
24/04:30pm 28.8 24.1 5.0 22 12.3 S 19 28 10 15 1014.2 1013.7 0.0
24/04:00pm 28.9 24.9 5.1 22 12.4 S 15 28 8 15 1014.4 1013.9 0.0
24/03:30pm 28.2 23.9 5.1 23 12.0 S 17 28 9 15 1014.8 1014.3 0.0
24/03:00pm 27.8 23.4 4.8 23 11.8 S 17 26 9 14 1015.2 1014.7 0.0
24/02:30pm 27.1 23.0 6.0 26 11.0 S 17 30 9 16 1015.6 1015.1 0.0
24/02:00pm 26.6 23.0 6.6 28 10.5 SSW 15 28 8 15 1016.0 1015.5 0.0
24/01:30pm 25.1 21.4 6.3 30 9.8 SSE 15 26 8 14 1016.5 1015.9 0.0
24/01:00pm 24.5 20.5 6.7 32 9.3 S 17 26 9 14 1017.1 1016.5 0.0
24/12:30pm 23.3 18.8 7.0 35 8.5 SSE 20 28 11 15 1017.3 1016.7 0.0
24/12:00pm 22.2 18.2 6.8 37 7.9 S 17 28 9 15 1017.8 1017.2 0.0
24/11:30am 21.3 16.8 6.8 39 7.4 S 20 28 11 15 1018.1 1017.5 0.0
24/11:00am 20.2 16.3 7.2 43 6.6 SSW 17 24 9 13 1018.2 1017.6 0.0
24/10:30am 19.5 16.0 7.3 45 6.2 SSE 15 26 8 14 1018.3 1017.7 0.0
24/10:00am 18.5 14.6 7.0 47 5.8 SSE 17 26 9 14 1018.3 1017.7 0.0
24/09:30am 17.5 13.1 6.7 49 5.4 SSE 19 32 10 17 1018.3 1017.7 0.0
24/09:00am 16.7 11.8 6.8 52 4.9 SSE 22 32 12 17 1018.2 1017.6 0.0
24/08:30am 15.4 11.3 6.4 55 4.4 S 17 24 9 13 1018.1 1017.5 0.0
24/08:00am 14.3 10.2 6.4 59 3.8 S 17 20 9 11 1017.7 1017.1 0.0
24/07:30am 13.2 9.5 6.1 62 3.4 S 15 22 8 12 1017.1 1016.5 0.0
24/07:00am 13.2 9.8 5.9 61 3.5 S 13 17 7 9 1017.0 1016.4 0.0
24/06:30am 14.0 9.9 6.1 59 3.8 S 17 24 9 13 1016.7 1016.1 0.0
24/06:00am 14.5 10.0 6.1 57 4.0 S 19 28 10 15 1016.5 1015.9 0.0
24/05:30am 14.8 10.6 5.9 55 4.3 S 17 24 9 13 1016.1 1015.6 0.0
24/05:00am 15.5 11.4 6.0 53 4.6 S 17 24 9 13 1015.7 1015.2 0.0
24/04:30am 16.1 11.4 6.0 51 4.9 S 20 32 11 17 1015.5 1015.0 0.0
24/04:00am 16.4 12.3 6.2 51 5.0 S 17 28 9 15 1015.3 1014.8 0.0
24/03:30am 16.7 13.3 5.9 49 5.3 S 13 20 7 11 1015.3 1014.8 0.0
24/03:00am 17.0 13.6 5.9 48 5.4 SSW 13 19 7 10 1015.3 1014.8 0.0
24/02:30am 17.7 13.9 5.9 46 5.8 SSW 15 22 8 12 1015.2 1014.7 0.0
24/02:00am 18.4 14.6 5.9 44 6.2 SSW 15 20 8 11 1015.3 1014.8 0.0
24/01:30am 18.9 15.2 6.1 43 6.4 SSW 15 22 8 12 1015.4 1014.9 0.0
24/01:00am 19.5 15.3 5.9 41 6.8 SSW 17 22 9 12 1015.4 1014.9 0.0
24/12:30am 20.0 15.9 6.0 40 7.0 SSW 17 26 9 14 1015.3 1014.8 0.0
24/12:00am 20.4 15.9 6.0 39 7.2 SSW 19 26 10 14 1015.2 1014.7 0.0
 
Date/Time
EDT
Temp
°C
App
Temp
°C
Dew
Point
°C
Rel
Hum
%
Delta-T
°C
Wind Press
QNH
hPa
Press
MSL
hPa
Rain since
9am
mm
Dir  Spd
km/h
Gust
km/h
Spd
kts
Gust
kts
23/11:30pm 20.8 17.0 6.0 38 7.4 SSW 15 24 8 13 1015.2 1014.7 0.0
23/11:00pm 21.3 17.2 6.0 37 7.7 S 17 22 9 12 1015.1 1014.6 0.0
23/10:30pm 21.6 18.1 5.5 35 8.1 S 13 17 7 9 1014.8 1014.3 0.0
23/10:00pm 22.6 18.5 6.0 34 8.4 SSW 17 24 9 13 1014.4 1013.9 0.0
23/09:30pm 23.4 18.8 5.8 32 9.0 S 19 30 10 16 1013.9 1013.4 0.0
23/09:00pm 23.8 19.5 5.2 30 9.4 SSW 17 26 9 14 1013.3 1012.8 0.0
23/08:30pm 24.4 20.0 4.7 28 9.9 SSW 17 22 9 12 1012.7 1012.1 0.0
23/08:00pm 25.4 20.6 4.5 26 10.5 SSW 19 32 10 17 1012.3 1011.7 0.0
23/07:30pm 26.5 20.7 4.3 24 11.2 SSW 24 35 13 19 1011.9 1011.3 0.0
23/07:00pm 27.7 22.5 5.3 24 11.6 SSW 22 32 12 17 1011.5 1010.9 0.0
23/06:30pm 28.1 22.5 5.6 24 11.7 SW 24 39 13 21 1011.2 1010.6 0.0
23/06:00pm 28.6 23.5 6.1 24 11.9 SSW 22 33 12 18 1011.0 1010.4 0.0
23/05:30pm 29.0 23.6 6.4 24 12.0 SSW 24 39 13 21 1010.8 1010.2 0.0
23/05:00pm 29.6 24.8 7.5 25 12.0 SSW 22 43 12 23 1010.8 1010.2 0.0
23/04:30pm 29.4 25.2 7.3 25 12.0 SW 19 30 10 16 1010.8 1010.2 0.0
23/04:00pm 28.7 23.5 5.5 23 12.1 SW 22 35 12 19 1010.8 1010.2 0.0
23/03:30pm 29.1 24.2 7.1 25 11.8 SW 22 33 12 18 1011.1 1010.5 0.0
23/03:00pm 28.7 24.1 6.7 25 11.8 SW 20 33 11 18 1011.4 1010.8 0.0
23/02:30pm 28.0 22.9 6.2 25 11.5 SSW 22 33 12 18 1011.6 1011.0 0.0
23/02:00pm 29.1 24.4 7.7 26 11.6 SSW 22 37 12 20 1011.7 1011.1 0.0
23/01:30pm 27.8 23.6 8.1 29 10.7 SW 20 33 11 18 1011.9 1011.3 0.0
23/01:00pm 26.8 21.5 6.8 28 10.6 SW 24 35 13 19 1012.2 1011.6 0.0
23/12:30pm 26.9 21.5 7.9 30 10.2 SW 26 41 14 22 1012.3 1011.7 0.0
23/12:00pm 25.8 21.5 7.9 32 9.6 SW 20 33 11 18 1012.4 1011.8 0.0
23/11:30am 24.9 20.4 8.4 35 8.9 SW 22 35 12 19 1012.5 1011.9 0.0
23/11:00am 24.9 20.6 9.2 37 8.6 SW 22 33 12 18 1012.3 1011.7 0.0
23/10:30am 23.8 19.6 9.8 41 7.7 SW 22 35 12 19 1012.2 1011.6 0.0
23/10:00am 23.1 18.8 10.9 46 6.8 SW 24 37 13 20 1011.9 1011.3 0.0
23/09:30am 22.9 18.6 11.9 50 6.2 SW 26 37 14 20 1011.6 1011.0 0.0
23/09:00am 22.6 17.6 12.3 52 5.9 SSW 30 43 16 23 1011.1 1010.5 0.0
23/08:30am 22.7 19.1 13.2 55 5.5 SSW 24 37 13 20 1010.6 1010.0 0.0
23/08:00am 22.9 19.3 13.1 54 5.7 SSW 24 35 13 19 1009.9 1009.3 0.0
23/07:30am 24.1 20.5 13.0 50 6.4 SSW 24 39 13 21 1009.3 1008.7 0.0
23/07:00am 24.8 21.8 12.1 45 7.3 SSW 19 28 10 15 1008.5 1007.9 0.0
23/06:30am 25.6 22.2 11.4 41 8.1 SSW 20 28 11 15 1007.6 1007.0 0.0
23/06:00am 28.7 26.3 12.6 37 9.5 WSW 17 28 9 15 1006.8 1006.2 0.0
23/05:30am 29.2 27.2 13.8 39 9.3 NW 17 24 9 13 1005.9 1005.4 0.0
23/05:00am 29.7 27.8 14.3 39 9.4 NNW 17 24 9 13 1005.2 1004.7 0.0
23/04:30am 29.8 27.8 14.0 38 9.5 NNW 17 28 9 15 1005.2 1004.7 0.0
23/04:00am 30.3 27.8 14.0 37 9.9 N 20 30 11 16 1005.1 1004.6 0.0
23/03:30am 30.3 27.8 14.0 37 9.9 N 20 28 11 15 1005.2 1004.7 0.0
23/03:00am 30.8 28.3 14.0 36 10.2 NNW 20 30 11 16 1005.4 1004.9 0.0
23/02:30am 30.4 28.0 13.7 36 10.1 N 19 26 10 14 1005.6 1005.1 0.0
23/02:00am 30.8 28.1 13.6 35 10.4 N 20 28 11 15 1005.6 1005.1 0.0
23/01:30am 31.2 28.5 13.5 34 10.7 N 20 28 11 15 1005.9 1005.4 0.0
23/01:00am 30.8 28.4 12.7 33 10.8 N 17 26 9 14 1006.3 1005.7 0.0
23/12:30am 31.4 28.5 12.2 30 11.4 N 19 26 10 14 1006.5 1005.9 0.0
23/12:00am 31.5 29.2 11.8 30 11.6 N 15 22 8 12 1006.6 1006.0 0.0
 
Date/Time
EDT
Temp
°C
App
Temp
°C
Dew
Point
°C
Rel
Hum
%
Delta-T
°C
Wind Press
QNH
hPa
Press
MSL
hPa
Rain since
9am
mm
Dir  Spd
km/h
Gust
km/h
Spd
kts
Gust
kts
22/11:30pm 31.8 28.7 11.6 29 11.9 N 19 24 10 13 1006.9 1006.3 0.0
22/11:00pm 32.3 29.4 10.9 27 12.5 N 17 24 9 13 1007.1 1006.5 0.0
22/10:30pm 32.2 29.2 10.8 27 12.4 N 17 22 9 12 1007.2 1006.6 0.0
22/10:00pm 31.4 29.3 11.2 29 11.8 N 13 17 7 9 1007.2 1006.6 0.0
22/09:30pm 31.9 30.0 11.7 29 11.9 N 13 15 7 8 1007.0 1006.4 0.0
22/09:00pm 32.2 30.7 11.9 29 12.0 N 11 13 6 7 1006.8 1006.2 0.0
22/08:30pm 32.8 31.3 11.9 28 12.4 NNE 11 13 6 7 1006.6 1006.0 0.0
22/08:00pm 35.4 33.5 10.4 22 14.7 N 11 13 6 7 1006.3 1005.7 0.0
22/07:30pm 36.8 34.4 10.2 20 15.6 N 13 22 7 12 1006.2 1005.6 0.0
22/07:00pm 38.6 35.2 9.2 17 17.2 NNW 17 24 9 13 1006.1 1005.5 0.0
22/06:30pm 39.0 35.7 9.5 17 17.3 N 17 26 9 14 1006.1 1005.5 0.0
22/06:00pm 38.9 37.1 9.4 17 17.3 N 9 15 5 8 1006.1 1005.5 0.0
22/05:30pm 39.2 36.7 9.7 17 17.4 NE 13 19 7 10 1006.1 1005.5 0.0
22/05:00pm 39.9 38.2 11.1 18 17.4 NNE 11 24 6 13 1006.4 1005.8 0.0
22/04:30pm 40.2 37.9 10.5 17 17.7 NNW 13 20 7 11 1006.8 1006.2 0.0
22/04:00pm 39.0 37.2 9.5 17 17.3 WNW 9 19 5 10 1007.2 1006.6 0.0
22/03:30pm 39.7 37.2 10.9 18 17.3 W 15 24 8 13 1007.6 1007.0 0.0
22/03:00pm 39.3 37.3 11.4 19 16.9 NNE 13 24 7 13 1008.1 1007.5 0.0
22/02:30pm 38.7 37.1 11.7 20 16.3 WSW 11 22 6 12 1008.7 1008.1 0.0
22/02:00pm 38.9 36.4 11.1 19 16.7 NNW 15 20 8 11 1009.1 1008.5 0.0
22/01:30pm 37.7 35.4 11.6 21 15.7 N 15 24 8 13 1009.5 1008.9 0.0
22/01:00pm 37.5 35.0 12.2 22 15.3 N 17 26 9 14 1010.0 1009.4 0.0
22/12:30pm 36.3 34.4 14.3 27 13.7 N 17 24 9 13 1010.5 1009.9 0.0
22/12:00pm 35.9 34.3 15.1 29 13.1 NW 17 24 9 13 1011.0 1010.4 0.0
22/11:30am 34.6 33.0 15.0 31 12.2 N 17 26 9 14 1011.2 1010.6 0.0
22/11:00am 33.4 31.4 15.4 34 11.3 N 20 28 11 15 1011.5 1010.9 0.0
22/10:30am 32.6 30.6 15.6 36 10.6 NNW 20 26 11 14 1011.9 1011.3 0.0
22/10:00am 31.3 30.0 15.7 39 9.7 NNW 17 24 9 13 1012.0 1011.4 0.0
22/09:30am 29.8 29.2 16.6 45 8.3 N 15 20 8 11 1011.9 1011.3 0.0
22/09:00am 27.8 27.2 16.7 50 6.9 N 15 19 8 10 1011.8 1011.2 2.2
22/08:30am 25.9 26.1 16.7 57 5.7 N 11 15 6 8 1011.6 1011.0 2.2
22/08:00am 23.8 23.6 15.8 61 4.9 NNE 11 13 6 7 1011.4 1010.8 2.2
22/07:30am 21.6 21.6 15.2 67 3.8 NE 9 11 5 6 1011.2 1010.6 2.2
22/07:00am 21.1 20.5 14.7 67 3.8 NNE 11 11 6 6 1010.8 1010.2 2.2
22/06:30am 21.0 20.4 14.6 67 3.8 NE 11 13 6 7 1010.5 1009.9 2.2
22/06:00am 21.6 21.4 14.7 65 4.1 NNE 9 11 5 6 1010.2 1009.6 2.2
22/05:30am 22.3 21.6 14.4 61 4.7 NNE 11 13 6 7 1010.1 1009.5 2.2
22/05:00am 22.7 21.7 14.5 60 4.9 NNE 13 17 7 9 1009.9 1009.3 2.2
22/04:30am 22.2 21.5 14.3 61 4.6 NE 11 13 6 7 1009.9 1009.3 2.2
22/04:00am 23.2 22.4 13.9 56 5.5 NE 11 13 6 7 1010.0 1009.4 2.2
22/03:30am 23.9 22.7 14.0 54 5.8 NE 13 15 7 8 1010.2 1009.6 2.2
22/03:00am 24.4 22.8 13.9 52 6.2 NE 15 19 8 10 1010.3 1009.7 2.2
22/02:30am 24.3 22.8 14.1 53 6.0 NE 15 17 8 9 1010.5 1009.9 2.2
22/02:00am 24.3 23.0 13.8 52 6.2 NE 13 15 7 8 1010.8 1010.2 2.2
22/01:30am 25.1 23.8 13.6 48 6.8 NE 13 17 7 9 1011.1 1010.5 2.2
22/01:00am 25.3 24.1 14.1 50 6.7 ENE 13 17 7 9 1011.1 1010.5 2.2
22/12:30am 25.5 24.4 14.3 50 6.7 ENE 13 15 7 8 1011.3 1010.7 2.2
22/12:00am 25.6 24.6 14.7 51 6.6 ENE 13 15 7 8 1011.5 1010.9 2.2
 
Date/Time
EDT
Temp
°C
App
Temp
°C
Dew
Point
°C
Rel
Hum
%
Delta-T
°C
Wind Press
QNH
hPa
Press
MSL
hPa
Rain since
9am
mm
Dir  Spd
km/h
Gust
km/h
Spd
kts
Gust
kts
21/11:30pm 26.0 25.1 14.8 50 6.7 NE 13 15 7 8 1011.4 1010.8 2.2
21/11:00pm 26.0 24.8 14.1 47 7.1 ENE 13 15 7 8 1011.3 1010.7 2.2

Other formats

Comma delimited format used in spreadsheet applications
http://www.bom.gov.au/fwo/IDN60801/IDN60801.95697.axf

JavaScript Object Notation format (JSON) in row-major order
http://www.bom.gov.au/fwo/IDN60801/IDN60801.95697.json

Data quality

Most of these data are generated automatically and are frequently updated. Quality checks on data are not normally performed. It is possible for incorrect values to appear. Refer to information at About Latest Weather Observations and please check the disclaimer before using these data.